Time;durP1;ratioP1;P1;durP2;ratioP2;P2;SDS_P1;SDS_P2;PMS_P1;PMS_P2;Temp;Humidity;BMP_temperature;BMP_pressure;BME280_temperature;BME280_humidity;BME280_pressure;Samples;Min_cycle;Max_cycle;Signal;HPM_P1;HPM_P2
2020/12/30 00:00:24;;;;;;;5.60;3.15;;;1.50;99.90;;;;;;5065424;28;20208;-63
2020/12/30 00:02:52;;;;;;;14.07;2.35;;;1.50;99.90;;;;;;5057595;28;20208;-64
2020/12/30 00:05:19;;;;;;;3.10;2.70;;;1.40;99.90;;;;;;5072736;28;20560;-64
2020/12/30 00:07:46;;;;;;;8.63;2.88;;;1.40;99.90;;;;;;5072950;28;20477;-65
2020/12/30 00:10:17;;;;;;;1.88;1.75;;;1.40;99.90;;;;;;5070570;28;20250;-65
2020/12/30 00:12:45;;;;;;;8.02;4.07;;;1.40;99.90;;;;;;5070922;28;20554;-62
2020/12/30 00:15:13;;;;;;;6.47;2.65;;;1.40;99.90;;;;;;5071083;28;20233;-63
2020/12/30 00:17:41;;;;;;;2.17;1.98;;;1.30;99.90;;;;;;5070843;28;20184;-63
2020/12/30 00:20:10;;;;;;;10.52;2.92;;;1.30;99.90;;;;;;5071106;28;20249;-63
2020/12/30 00:22:37;;;;;;;2.90;2.13;;;1.40;99.90;;;;;;5071365;28;20529;-65
2020/12/30 00:25:04;;;;;;;2.90;2.60;;;1.30;99.90;;;;;;5070773;28;20177;-63
2020/12/30 00:27:31;;;;;;;4.18;2.15;;;1.30;99.90;;;;;;5071193;28;20180;-62
2020/12/30 00:29:59;;;;;;;4.20;2.47;;;1.30;99.90;;;;;;5070801;28;20307;-64
2020/12/30 00:32:27;;;;;;;4.63;2.33;;;1.30;99.90;;;;;;5070280;28;20180;-66
2020/12/30 00:34:54;;;;;;;3.67;3.17;;;1.30;99.90;;;;;;5071365;28;20675;-64
2020/12/30 00:37:21;;;;;;;4.65;2.30;;;1.30;99.90;;;;;;5071216;28;20675;-65
2020/12/30 00:39:48;;;;;;;3.78;2.60;;;1.30;99.90;;;;;;5070886;28;20281;-64
2020/12/30 00:42:15;;;;;;;3.70;3.15;;;1.20;99.90;;;;;;5070935;28;20580;-65
2020/12/30 00:44:43;;;;;;;4.45;2.60;;;1.30;99.90;;;;;;5069850;28;20192;-62
2020/12/30 00:47:11;;;;;;;2.65;2.42;;;1.30;99.90;;;;;;5070373;28;20195;-64
2020/12/30 00:49:38;;;;;;;3.30;2.67;;;1.40;99.90;;;;;;5088847;28;20644;-64
2020/12/30 00:52:06;;;;;;;2.72;2.53;;;1.30;99.90;;;;;;5089166;28;20606;-65
2020/12/30 00:54:40;;;;;;;3.30;3.08;;;1.30;99.90;;;;;;5091243;28;20517;-63
2020/12/30 00:57:13;;;;;;;3.10;2.40;;;1.30;99.90;;;;;;5089769;28;20499;-65
2020/12/30 00:59:41;;;;;;;3.60;2.78;;;1.30;99.90;;;;;;5089837;28;20203;-62
2020/12/30 01:02:09;;;;;;;2.25;1.77;;;1.30;99.90;;;;;;5090778;28;20183;-63
2020/12/30 01:04:39;;;;;;;2.78;2.55;;;1.30;99.90;;;;;;5089690;28;20574;-62
2020/12/30 01:07:06;;;;;;;3.22;2.53;;;1.20;99.90;;;;;;5091370;28;20546;-64
2020/12/30 01:09:33;;;;;;;4.25;3.85;;;1.20;99.90;;;;;;5091048;28;20212;-64
2020/12/30 01:12:01;;;;;;;4.25;3.22;;;1.20;99.90;;;;;;5095569;28;20193;-64
2020/12/30 01:14:28;;;;;;;4.47;2.80;;;1.20;99.90;;;;;;5095409;28;20172;-63
2020/12/30 01:16:57;;;;;;;2.88;2.22;;;1.20;99.90;;;;;;5095737;28;20183;-64
2020/12/30 01:19:24;;;;;;;3.80;2.58;;;1.10;99.90;;;;;;5094851;28;20218;-69
2020/12/30 01:21:53;;;;;;;3.53;2.70;;;1.10;99.90;;;;;;5094544;28;20232;-65
2020/12/30 01:24:20;;;;;;;4.45;2.65;;;1.10;99.90;;;;;;5094907;28;20609;-65
2020/12/30 01:26:48;;;;;;;3.10;2.30;;;1.10;99.90;;;;;;5094854;28;20635;-64
2020/12/30 01:29:15;;;;;;;3.50;2.72;;;1.10;99.90;;;;;;5094607;28;20215;-64
2020/12/30 01:31:42;;;;;;;3.78;3.30;;;1.10;99.90;;;;;;5094538;28;20667;-65
2020/12/30 01:34:10;;;;;;;2.60;2.40;;;1.10;99.90;;;;;;5094076;28;20726;-64
2020/12/30 01:36:37;;;;;;;2.70;2.50;;;1.20;99.90;;;;;;5095152;28;20183;-64
2020/12/30 01:39:06;;;;;;;4.20;2.30;;;1.20;99.90;;;;;;5095919;28;20187;-64
2020/12/30 01:41:33;;;;;;;3.20;2.88;;;1.30;99.90;;;;;;5098780;28;20532;-63
2020/12/30 01:44:03;;;;;;;2.92;2.35;;;1.40;99.90;;;;;;5096447;28;20620;-64
2020/12/30 01:46:36;;;;;;;2.40;2.20;;;1.40;99.90;;;;;;5093826;28;20677;-65
2020/12/30 01:49:05;;;;;;;2.53;2.13;;;1.30;99.90;;;;;;5094210;28;20639;-63
2020/12/30 01:51:33;;;;;;;3.03;2.40;;;1.30;99.90;;;;;;5093979;28;20589;-64
2020/12/30 01:54:02;;;;;;;2.25;2.03;;;1.30;99.90;;;;;;5093723;28;20186;-64
2020/12/30 01:56:33;;;;;;;3.78;2.15;;;1.20;99.90;;;;;;5093650;28;20171;-64
2020/12/30 01:59:04;;;;;;;3.05;2.05;;;1.20;99.90;;;;;;5095331;28;20278;-64
2020/12/30 02:01:33;;;;;;;4.40;2.78;;;1.10;99.90;;;;;;5092978;28;20202;-64
2020/12/30 02:04:03;;;;;;;4.60;4.20;;;1.20;99.90;;;;;;5093685;28;20183;-67
2020/12/30 02:06:31;;;;;;;3.80;1.88;;;1.30;99.90;;;;;;5093735;28;20187;-61
2020/12/30 02:08:58;;;;;;;3.65;3.00;;;1.30;99.90;;;;;;5092148;28;20172;-64
2020/12/30 02:11:27;;;;;;;2.00;1.70;;;1.30;99.90;;;;;;5093343;28;20213;-62
2020/12/30 02:14:06;;;;;;;3.33;2.80;;;1.30;99.90;;;;;;5093399;28;20244;-64
2020/12/30 02:16:47;;;;;;;6.32;2.78;;;1.30;99.90;;;;;;5093471;28;20273;-65
2020/12/30 02:19:15;;;;;;;4.03;2.92;;;1.30;99.90;;;;;;5093423;28;20234;-63
2020/12/30 02:21:42;;;;;;;2.60;2.40;;;1.30;99.90;;;;;;5092623;28;20187;-64
2020/12/30 02:24:12;;;;;;;2.58;2.38;;;1.30;99.90;;;;;;5093492;28;20519;-65
2020/12/30 02:26:40;;;;;;;3.00;2.80;;;1.40;99.90;;;;;;5093776;28;20304;-63
2020/12/30 02:29:07;;;;;;;4.60;2.22;;;1.40;99.90;;;;;;5093520;28;20176;-65
2020/12/30 02:31:35;;;;;;;4.63;3.00;;;1.40;99.90;;;;;;5094155;28;20180;-66
2020/12/30 02:34:02;;;;;;;3.60;1.92;;;1.40;99.90;;;;;;5093764;28;20191;-62
2020/12/30 02:36:30;;;;;;;3.90;2.90;;;1.40;99.90;;;;;;5092783;28;20192;-66
2020/12/30 02:38:57;;;;;;;5.07;2.67;;;1.40;99.90;;;;;;5093111;28;20179;-63
2020/12/30 02:41:24;;;;;;;3.88;2.92;;;1.40;99.90;;;;;;5091364;28;20200;-64
2020/12/30 02:43:52;;;;;;;5.50;2.95;;;1.40;99.90;;;;;;5093213;28;20818;-64
2020/12/30 02:46:19;;;;;;;3.40;2.47;;;1.40;99.90;;;;;;5092614;28;20904;-61
2020/12/30 02:48:46;;;;;;;3.30;3.00;;;1.40;99.90;;;;;;5092826;28;20180;-65
2020/12/30 02:51:14;;;;;;;3.90;2.03;;;1.40;99.90;;;;;;5092370;28;20215;-64
2020/12/30 02:53:41;;;;;;;2.55;1.90;;;1.30;99.90;;;;;;5092719;28;20232;-63
2020/12/30 02:56:08;;;;;;;1.75;1.65;;;1.30;99.90;;;;;;5092508;28;20183;-64
2020/12/30 02:58:35;;;;;;;2.00;1.38;;;1.30;99.90;;;;;;5091011;28;20685;-63
2020/12/30 03:01:08;;;;;;;1.67;1.58;;;1.20;99.90;;;;;;5092508;28;20200;-64
2020/12/30 03:03:36;;;;;;;3.13;2.35;;;1.20;99.90;;;;;;5092700;28;20653;-63
2020/12/30 03:06:03;;;;;;;2.03;1.83;;;1.20;99.90;;;;;;5093309;28;20188;-63
2020/12/30 03:08:30;;;;;;;4.97;2.72;;;1.20;99.90;;;;;;5092797;28;20191;-66
2020/12/30 03:10:57;;;;;;;4.45;2.92;;;1.10;99.90;;;;;;5092585;28;20203;-64
2020/12/30 03:13:25;;;;;;;2.78;2.58;;;1.00;99.90;;;;;;5092622;28;20180;-64
2020/12/30 03:15:52;;;;;;;2.75;2.30;;;1.10;99.90;;;;;;5091345;28;20179;-64
2020/12/30 03:18:21;;;;;;;1.98;1.52;;;1.10;99.90;;;;;;5092465;28;20187;-63
2020/12/30 03:20:48;;;;;;;5.57;1.95;;;1.00;99.90;;;;;;5092414;28;20203;-64
2020/12/30 03:23:15;;;;;;;4.00;2.58;;;1.10;99.90;;;;;;5092195;28;20194;-64
2020/12/30 03:25:43;;;;;;;2.75;2.17;;;1.10;99.90;;;;;;5092581;28;20174;-64
2020/12/30 03:28:10;;;;;;;1.92;1.65;;;1.10;99.90;;;;;;5092079;28;20191;-64
2020/12/30 03:30:38;;;;;;;3.15;2.15;;;1.00;99.90;;;;;;5091815;28;20219;-62
2020/12/30 03:33:05;;;;;;;2.00;1.80;;;1.00;99.90;;;;;;5091708;28;20223;-64
2020/12/30 03:35:34;;;;;;;3.08;2.10;;;0.90;99.90;;;;;;5092065;28;20179;-65
2020/12/30 03:38:01;;;;;;;2.95;2.08;;;1.00;99.90;;;;;;5092157;28;20183;-66
2020/12/30 03:40:28;;;;;;;3.65;2.30;;;1.00;99.90;;;;;;5091853;28;20204;-63
2020/12/30 03:42:55;;;;;;;3.97;3.55;;;1.10;99.90;;;;;;5091825;28;20187;-64
2020/12/30 03:45:22;;;;;;;2.25;2.05;;;1.20;99.90;;;;;;5091742;28;20179;-64
2020/12/30 03:47:49;;;;;;;2.40;1.48;;;1.30;99.90;;;;;;5091530;28;20191;-63
2020/12/30 03:50:16;;;;;;;2.47;2.05;;;1.40;99.90;;;;;;5091450;28;20207;-64
2020/12/30 03:52:44;;;;;;;2.85;2.65;;;1.40;99.90;;;;;;5091468;28;20687;-64
2020/12/30 03:55:11;;;;;;;7.93;3.50;;;1.50;99.90;;;;;;5091357;28;20183;-65
2020/12/30 03:57:38;;;;;;;4.40;2.67;;;1.60;99.90;;;;;;5091245;28;20237;-64
2020/12/30 04:00:06;;;;;;;3.00;2.60;;;1.60;99.90;;;;;;5091145;28;20238;-65
2020/12/30 04:02:39;;;;;;;2.10;1.58;;;1.60;99.90;;;;;;5091520;28;20176;-64
2020/12/30 04:05:06;;;;;;;2.22;2.03;;;1.50;99.90;;;;;;5091624;28;20187;-64
2020/12/30 04:07:34;;;;;;;2.38;2.17;;;1.50;99.90;;;;;;5091316;28;20183;-66
2020/12/30 04:10:02;;;;;;;2.38;1.55;;;1.50;99.90;;;;;;5091281;28;20207;-62
2020/12/30 04:12:29;;;;;;;2.45;2.20;;;1.50;99.90;;;;;;5091260;28;20659;-60
2020/12/30 04:14:56;;;;;;;2.30;2.08;;;1.50;99.90;;;;;;5091446;28;20532;-65
2020/12/30 04:17:23;;;;;;;3.78;1.50;;;1.50;99.90;;;;;;5091290;28;20263;-63
2020/12/30 04:19:50;;;;;;;1.50;1.38;;;1.50;99.90;;;;;;5090996;28;20248;-64
2020/12/30 04:22:18;;;;;;;1.80;1.70;;;1.50;99.90;;;;;;5090794;28;20171;-66
2020/12/30 04:24:45;;;;;;;2.17;1.70;;;1.40;99.90;;;;;;5091129;28;20194;-64
2020/12/30 04:27:13;;;;;;;4.60;2.55;;;1.40;99.90;;;;;;5091101;28;20190;-66
2020/12/30 04:29:40;;;;;;;3.67;2.58;;;1.40;99.90;;;;;;5090933;28;20203;-65
2020/12/30 04:32:07;;;;;;;2.20;2.00;;;1.40;99.90;;;;;;5091488;28;20179;-63
2020/12/30 04:34:34;;;;;;;3.25;2.63;;;1.50;99.90;;;;;;5090389;28;20198;-64
2020/12/30 04:37:01;;;;;;;3.22;2.38;;;1.50;99.90;;;;;;5091649;28;20184;-63
2020/12/30 04:39:29;;;;;;;4.68;2.85;;;1.50;99.90;;;;;;5090747;28;20751;-64
2020/12/30 04:42:00;;;;;;;3.20;2.53;;;1.50;99.90;;;;;;5090832;28;20251;-61
2020/12/30 04:44:32;;;;;;;2.28;2.10;;;1.60;99.90;;;;;;5090509;28;20233;-62
2020/12/30 04:47:02;;;;;;;2.38;1.35;;;1.70;99.90;;;;;;5106153;22;20253;-55
2020/12/30 04:49:30;;;;;;;4.88;2.10;;;1.80;99.90;;;;;;5091668;28;20211;-54
2020/12/30 04:51:58;;;;;;;3.53;2.28;;;1.80;99.90;;;;;;5091752;28;20217;-58
2020/12/30 04:54:26;;;;;;;1.67;1.25;;;1.90;99.90;;;;;;5092288;28;20180;-53
2020/12/30 04:56:58;;;;;;;3.67;1.77;;;1.90;1.00;;;;;;5091321;28;20199;-58
2020/12/30 04:59:32;;;;;;;3.38;2.80;;;1.90;1.00;;;;;;5091216;28;20248;-56
2020/12/30 05:02:08;;;;;;;4.47;3.17;;;2.00;1.00;;;;;;5091441;28;20563;-57
2020/12/30 05:04:37;;;;;;;3.13;1.70;;;2.00;99.90;;;;;;5091450;28;20546;-54
2020/12/30 05:07:09;;;;;;;2.10;1.90;;;2.00;99.90;;;;;;5091451;28;20210;-56
2020/12/30 05:09:38;;;;;;;2.25;1.65;;;1.90;99.90;;;;;;5089778;28;20293;-57
2020/12/30 05:12:11;;;;;;;2.70;2.38;;;1.90;1.00;;;;;;5090863;28;20194;-56
2020/12/30 05:14:40;;;;;;;3.30;1.95;;;1.80;1.00;;;;;;5091328;28;20188;-54
2020/12/30 05:17:08;;;;;;;4.10;2.28;;;1.80;99.90;;;;;;5090945;28;20196;-61
2020/12/30 05:19:36;;;;;;;3.10;2.47;;;1.80;1.00;;;;;;5091008;28;20211;-58
2020/12/30 05:22:03;;;;;;;2.25;2.05;;;1.70;99.90;;;;;;5091342;28;20198;-55
2020/12/30 05:24:31;;;;;;;2.58;2.35;;;1.70;99.90;;;;;;5091047;28;20214;-57
2020/12/30 05:26:59;;;;;;;3.90;2.13;;;1.70;99.90;;;;;;5091191;28;20187;-54
2020/12/30 05:29:27;;;;;;;2.10;1.90;;;1.60;99.90;;;;;;5090972;28;20249;-51
2020/12/30 05:31:56;;;;;;;2.20;1.77;;;1.50;99.90;;;;;;5089337;28;20583;-57
2020/12/30 05:34:24;;;;;;;3.13;2.60;;;1.50;99.90;;;;;;5091277;28;20284;-53
2020/12/30 05:36:52;;;;;;;2.60;2.38;;;1.40;99.90;;;;;;5091087;28;20187;-53
2020/12/30 05:39:21;;;;;;;2.42;2.10;;;1.40;99.90;;;;;;5090842;28;20293;-55
2020/12/30 05:41:48;;;;;;;3.58;2.03;;;1.40;99.90;;;;;;5090540;28;20195;-56
2020/12/30 05:44:19;;;;;;;2.13;1.75;;;1.30;99.90;;;;;;5091227;28;20690;-51
2020/12/30 05:46:46;;;;;;;3.88;2.17;;;1.30;99.90;;;;;;5090803;28;20732;-54
2020/12/30 05:49:33;;;;;;;2.08;1.85;;;1.30;99.90;;;;;;5091026;28;20252;-59
2020/12/30 05:52:28;;;;;;;2.28;1.52;;;1.30;99.90;;;;;;5090617;28;20249;-56
2020/12/30 05:54:56;;;;;;;2.65;1.75;;;1.30;99.90;;;;;;5089291;28;20701;-52
2020/12/30 05:57:26;;;;;;;3.80;2.13;;;1.30;99.90;;;;;;5093942;28;20192;-60
2020/12/30 05:59:55;;;;;;;3.72;1.58;;;1.30;99.90;;;;;;5094585;28;20302;-51
2020/12/30 06:02:29;;;;;;;2.70;1.95;;;1.20;99.90;;;;;;5093325;28;20682;-58
2020/12/30 06:05:08;;;;;;;3.60;2.33;;;1.20;99.90;;;;;;5095456;28;20351;-54
2020/12/30 06:07:39;;;;;;;2.65;1.95;;;1.20;99.90;;;;;;5095239;28;20632;-53
2020/12/30 06:10:08;;;;;;;4.93;3.92;;;1.20;99.90;;;;;;5094213;28;20214;-55
2020/12/30 06:12:39;;;;;;;6.68;3.00;;;1.10;99.90;;;;;;5094288;28;20176;-54
2020/12/30 06:15:09;;;;;;;4.53;2.30;;;1.10;99.90;;;;;;5094417;28;20172;-55
2020/12/30 06:17:49;;;;;;;1.73;1.50;;;1.10;99.90;;;;;;5094312;28;20186;-55
2020/12/30 06:20:21;;;;;;;3.72;2.63;;;1.00;99.90;;;;;;5094066;28;20203;-57
2020/12/30 06:22:55;;;;;;;5.07;2.45;;;1.00;99.90;;;;;;5094050;28;20202;-52
2020/12/30 06:25:24;;;;;;;1.42;1.33;;;0.90;99.90;;;;;;5094281;28;20536;-58
2020/12/30 06:27:53;;;;;;;3.53;2.72;;;0.90;99.90;;;;;;5094082;28;20191;-55
2020/12/30 06:30:21;;;;;;;2.53;2.33;;;0.90;99.90;;;;;;5094673;28;20239;-56
2020/12/30 06:32:50;;;;;;;3.60;2.25;;;1.00;99.90;;;;;;5095626;28;20195;-53
2020/12/30 06:35:28;;;;;;;3.67;2.28;;;1.00;99.90;;;;;;5095735;28;20667;-56
2020/12/30 06:37:56;;;;;;;3.33;2.55;;;0.90;99.90;;;;;;5094939;28;20175;-56
2020/12/30 06:40:29;;;;;;;5.90;1.75;;;0.80;99.90;;;;;;5095779;28;20622;-56
2020/12/30 06:42:58;;;;;;;3.88;2.20;;;0.80;99.90;;;;;;5094875;28;20202;-57
2020/12/30 06:46:01;;;;;;;2.60;2.22;;;0.80;99.90;;;;;;5093117;28;20252;-60
2020/12/30 06:48:28;;;;;;;2.67;1.92;;;0.80;99.90;;;;;;5094794;28;20171;-57
2020/12/30 06:51:16;;;;;;;2.42;2.03;;;0.80;99.90;;;;;;5094495;28;20570;-56
2020/12/30 06:53:49;;;;;;;3.85;3.45;;;0.80;99.90;;;;;;5095026;28;20207;-57
2020/12/30 06:56:35;;;;;;;2.15;1.60;;;0.80;99.90;;;;;;5096045;28;20179;-54
2020/12/30 06:59:02;;;;;;;2.10;1.70;;;0.80;99.90;;;;;;5094108;28;20250;-51
2020/12/30 07:01:30;;;;;;;3.90;2.33;;;0.80;99.90;;;;;;5093714;28;20180;-55
2020/12/30 07:04:07;;;;;;;2.53;2.33;;;0.80;99.90;;;;;;5093699;28;20256;-52
2020/12/30 07:06:35;;;;;;;2.92;2.40;;;0.80;99.90;;;;;;5093741;28;20636;-57
2020/12/30 07:09:05;;;;;;;4.55;3.20;;;0.80;99.90;;;;;;5093361;28;20183;-54
2020/12/30 07:11:50;;;;;;;2.53;1.92;;;0.90;99.90;;;;;;5093475;28;20206;-54
2020/12/30 07:14:22;;;;;;;3.38;2.30;;;0.90;99.90;;;;;;5093523;28;20173;-57
2020/12/30 07:16:52;;;;;;;5.43;2.92;;;0.90;99.90;;;;;;5093365;28;20271;-56
2020/12/30 07:19:22;;;;;;;4.28;3.25;;;0.80;99.90;;;;;;5093024;28;20207;-52
2020/12/30 07:21:56;;;;;;;3.50;2.42;;;0.70;99.90;;;;;;5092842;28;20172;-56
2020/12/30 07:24:25;;;;;;;3.78;1.58;;;0.80;99.90;;;;;;5093037;28;20171;-57
2020/12/30 07:26:55;;;;;;;2.85;2.15;;;0.80;99.90;;;;;;5092775;28;20188;-58
2020/12/30 07:29:23;;;;;;;4.53;3.65;;;0.80;99.90;;;;;;5092978;28;20699;-58
2020/12/30 07:31:53;;;;;;;6.88;2.88;;;0.70;99.90;;;;;;5092454;28;20195;-54
2020/12/30 07:34:22;;;;;;;4.78;2.25;;;0.70;99.90;;;;;;5091910;28;20175;-51
2020/12/30 07:36:50;;;;;;;7.40;2.90;;;0.70;99.90;;;;;;5092221;28;20520;-51
2020/12/30 07:39:24;;;;;;;5.18;3.20;;;0.70;99.90;;;;;;5092704;28;20211;-53
2020/12/30 07:41:51;;;;;;;3.00;2.65;;;0.80;99.90;;;;;;5092525;28;20247;-54
2020/12/30 07:44:22;;;;;;;3.63;3.33;;;0.70;99.90;;;;;;5092851;28;20193;-51
2020/12/30 07:46:50;;;;;;;6.95;3.53;;;0.70;99.90;;;;;;5093506;28;20195;-56
2020/12/30 07:49:20;;;;;;;2.83;2.35;;;0.80;99.90;;;;;;5093498;28;20222;-55
2020/12/30 07:51:52;;;;;;;3.85;3.13;;;0.80;99.90;;;;;;5093066;28;20219;-55
2020/12/30 07:54:22;;;;;;;2.60;2.28;;;0.90;99.90;;;;;;5092925;28;20180;-56
2020/12/30 07:56:50;;;;;;;4.95;3.28;;;0.90;99.90;;;;;;5093312;28;20262;-53
2020/12/30 07:59:22;;;;;;;4.75;4.05;;;1.00;99.90;;;;;;5092786;28;20686;-55
2020/12/30 08:02:03;;;;;;;6.70;3.20;;;1.00;99.90;;;;;;5092359;28;20270;-54
2020/12/30 08:04:32;;;;;;;4.65;3.15;;;1.00;99.90;;;;;;5091533;28;20293;-55
2020/12/30 08:07:01;;;;;;;5.40;4.95;;;1.00;99.90;;;;;;5092629;28;20187;-52
2020/12/30 08:09:31;;;;;;;9.50;3.60;;;1.10;99.90;;;;;;5091320;28;20262;-57
2020/12/30 08:11:59;;;;;;;5.22;3.17;;;1.10;99.90;;;;;;5092039;28;20191;-54
2020/12/30 08:14:28;;;;;;;7.40;3.72;;;1.10;99.90;;;;;;5090823;28;20184;-57
2020/12/30 08:16:58;;;;;;;9.25;4.25;;;1.20;99.90;;;;;;5091995;28;20702;-55
2020/12/30 08:19:30;;;;;;;2.70;2.33;;;1.30;78.80;;;;;;5090175;28;20770;-58
2020/12/30 08:22:08;;;;;;;3.13;2.28;;;1.40;13.10;;;;;;5092295;28;20256;-59
2020/12/30 08:24:39;;;;;;;3.97;3.67;;;1.60;1.00;;;;;;5092275;28;20205;-55
2020/12/30 08:27:06;;;;;;;4.07;3.72;;;1.70;1.00;;;;;;5092149;28;20183;-56
2020/12/30 08:29:53;;;;;;;3.95;3.22;;;1.70;99.90;;;;;;5091823;28;20247;-58
2020/12/30 08:32:31;;;;;;;4.70;3.22;;;1.80;1.00;;;;;;5091603;28;20203;-58
2020/12/30 08:35:01;;;;;;;4.60;3.05;;;1.70;99.90;;;;;;5092425;28;20628;-55
2020/12/30 08:37:30;;;;;;;3.80;3.20;;;1.80;99.90;;;;;;5091941;28;20180;-56
2020/12/30 08:40:06;;;;;;;4.55;4.13;;;1.80;1.00;;;;;;5091571;28;20276;-53
2020/12/30 08:42:50;;;;;;;3.72;2.72;;;1.80;1.00;;;;;;5092152;28;20190;-54
2020/12/30 08:45:21;;;;;;;7.45;3.03;;;1.80;1.00;;;;;;5091839;28;20179;-56
2020/12/30 08:47:53;;;;;;;5.65;3.60;;;1.80;1.00;;;;;;5091870;28;20191;-58
2020/12/30 08:50:23;;;;;;;3.13;2.33;;;1.80;1.00;;;;;;5091368;28;20691;-56
2020/12/30 08:52:51;;;;;;;4.65;2.45;;;1.90;99.90;;;;;;5091652;28;20195;-59
2020/12/30 08:55:19;;;;;;;2.95;2.67;;;1.90;99.90;;;;;;5091893;28;20608;-52
2020/12/30 08:57:48;;;;;;;3.83;2.97;;;2.00;99.90;;;;;;5091145;28;20545;-55
2020/12/30 09:00:16;;;;;;;5.22;3.42;;;2.00;99.90;;;;;;5091294;28;20718;-56
2020/12/30 09:02:44;;;;;;;4.50;3.33;;;2.00;99.90;;;;;;5091556;28;20176;-53
2020/12/30 09:05:11;;;;;;;3.97;3.42;;;2.10;1.00;;;;;;5091517;28;20172;-56
2020/12/30 09:07:39;;;;;;;13.50;3.50;;;2.20;1.00;;;;;;5091566;28;20186;-58
2020/12/30 09:10:09;;;;;;;3.40;2.60;;;2.20;1.00;;;;;;5091072;28;20207;-59
2020/12/30 09:12:38;;;;;;;2.97;2.53;;;2.30;1.00;;;;;;5090806;28;20206;-58
2020/12/30 09:15:06;;;;;;;6.00;4.15;;;2.40;99.90;;;;;;5090817;28;20237;-56
2020/12/30 09:17:35;;;;;;;5.68;4.45;;;2.50;99.90;;;;;;5091041;28;20179;-53
2020/12/30 09:20:13;;;;;;;6.35;4.47;;;2.70;1.00;;;;;;5090463;28;20562;-58
2020/12/30 09:22:41;;;;;;;4.90;3.35;;;2.80;1.00;;;;;;5091023;28;20175;-58
2020/12/30 09:25:24;;;;;;;6.05;3.75;;;2.90;99.90;;;;;;5090795;28;20215;-57
2020/12/30 09:27:52;;;;;;;3.08;2.78;;;3.00;1.00;;;;;;5090698;28;20176;-55
2020/12/30 09:30:22;;;;;;;3.83;3.55;;;3.00;1.00;;;;;;5090963;28;20817;-56
2020/12/30 09:32:49;;;;;;;12.48;4.75;;;3.10;99.90;;;;;;5095211;28;20176;-56
2020/12/30 09:35:18;;;;;;;6.80;2.92;;;3.20;99.90;;;;;;5095039;28;20538;-59
2020/12/30 09:37:52;;;;;;;5.55;3.38;;;3.30;1.00;;;;;;5094967;28;20278;-58
2020/12/30 09:40:20;;;;;;;3.25;2.90;;;3.30;99.90;;;;;;5094924;28;20368;-54
2020/12/30 09:42:47;;;;;;;9.52;4.05;;;3.40;99.90;;;;;;5095112;28;20252;-56
2020/12/30 09:45:20;;;;;;;5.05;4.30;;;3.50;99.90;;;;;;5093728;28;20532;-57
2020/12/30 09:47:47;;;;;;;7.55;5.65;;;3.50;1.00;;;;;;5094948;28;20244;-59
2020/12/30 09:50:17;;;;;;;6.05;3.78;;;3.60;99.90;;;;;;5094557;28;20203;-55
2020/12/30 09:52:46;;;;;;;5.78;4.25;;;3.60;99.90;;;;;;5094488;28;20245;-56
2020/12/30 09:55:14;;;;;;;6.70;4.82;;;3.70;1.00;;;;;;5094929;28;20172;-60
2020/12/30 09:57:42;;;;;;;6.07;3.47;;;3.80;99.90;;;;;;5094485;28;20377;-54
2020/12/30 10:00:10;;;;;;;8.18;4.70;;;3.70;99.90;;;;;;5094433;28;20211;-58
2020/12/30 10:02:38;;;;;;;11.23;5.28;;;3.80;99.90;;;;;;5091121;28;20284;-54
2020/12/30 10:05:05;;;;;;;7.18;5.30;;;3.90;99.90;;;;;;5094152;28;20585;-56
2020/12/30 10:07:36;;;;;;;4.82;3.67;;;4.00;1.00;;;;;;5094355;28;20694;-55
2020/12/30 10:10:04;;;;;;;4.93;3.58;;;4.10;99.90;;;;;;5093299;28;20269;-60
2020/12/30 10:12:31;;;;;;;3.58;3.05;;;4.10;99.90;;;;;;5094003;28;20188;-57
2020/12/30 10:14:58;;;;;;;4.85;4.00;;;4.10;99.90;;;;;;5093946;28;20237;-55
2020/12/30 10:17:25;;;;;;;5.93;3.72;;;4.20;99.90;;;;;;5093695;28;20475;-59
2020/12/30 10:19:53;;;;;;;4.45;3.53;;;4.20;99.90;;;;;;5093689;28;20211;-58
2020/12/30 10:22:20;;;;;;;4.30;3.17;;;4.20;99.90;;;;;;5093332;28;20206;-59
2020/12/30 10:24:48;;;;;;;4.00;3.28;;;4.30;99.90;;;;;;5093601;28;20187;-57
2020/12/30 10:27:15;;;;;;;4.35;3.05;;;4.30;99.90;;;;;;5092924;28;20207;-61
2020/12/30 10:29:42;;;;;;;5.40;3.55;;;4.30;99.90;;;;;;5092537;28;20199;-52
2020/12/30 10:32:09;;;;;;;7.85;4.78;;;4.30;99.90;;;;;;5090668;28;20539;-58
2020/12/30 10:34:37;;;;;;;2.15;1.73;;;4.30;99.90;;;;;;5093454;28;20186;-56
2020/12/30 10:37:05;;;;;;;5.75;4.68;;;4.30;99.90;;;;;;5093673;28;20183;-57
2020/12/30 10:39:33;;;;;;;6.72;3.60;;;4.30;99.90;;;;;;5091332;28;20261;-58
2020/12/30 10:42:02;;;;;;;4.13;3.00;;;4.30;99.90;;;;;;5091032;28;20200;-58
2020/12/30 10:44:30;;;;;;;4.57;3.70;;;4.40;99.90;;;;;;5092447;28;20529;-59
2020/12/30 10:46:57;;;;;;;3.00;2.80;;;4.40;99.90;;;;;;5091892;28;20226;-57
2020/12/30 10:49:27;;;;;;;8.77;3.30;;;4.50;99.90;;;;;;5092352;28;20212;-56
2020/12/30 10:51:54;;;;;;;3.75;3.45;;;4.50;99.90;;;;;;5092019;28;20604;-58
2020/12/30 10:54:22;;;;;;;3.75;2.42;;;4.60;99.90;;;;;;5093067;28;20660;-60
2020/12/30 10:56:50;;;;;;;4.10;3.38;;;4.60;99.90;;;;;;5090620;28;20219;-55
2020/12/30 10:59:18;;;;;;;7.03;3.58;;;4.70;99.90;;;;;;5093032;28;20207;-58
2020/12/30 11:01:49;;;;;;;5.18;4.47;;;4.70;99.90;;;;;;5091756;28;20184;-57
2020/12/30 11:04:16;;;;;;;4.32;3.92;;;4.70;99.90;;;;;;5090912;28;20188;-60
2020/12/30 11:06:43;;;;;;;8.57;3.75;;;4.70;99.90;;;;;;5092555;28;20186;-58
2020/12/30 11:09:10;;;;;;;4.60;3.55;;;4.80;99.90;;;;;;5091567;28;20202;-60
2020/12/30 11:11:40;;;;;;;4.40;4.00;;;4.80;99.90;;;;;;5091385;28;20252;-58
2020/12/30 11:14:08;;;;;;;4.97;3.35;;;4.90;99.90;;;;;;5092227;28;20194;-55
2020/12/30 11:16:35;;;;;;;3.88;2.45;;;4.90;99.90;;;;;;5091844;28;20191;-61
2020/12/30 11:19:02;;;;;;;3.42;2.90;;;4.90;99.90;;;;;;5090623;28;20202;-57
2020/12/30 11:21:30;;;;;;;4.03;3.17;;;5.00;99.90;;;;;;5092343;28;20665;-57
2020/12/30 11:23:57;;;;;;;3.85;3.10;;;5.00;99.90;;;;;;5089733;28;20202;-58
2020/12/30 11:26:24;;;;;;;4.55;4.15;;;5.00;99.90;;;;;;5091334;28;20187;-56
2020/12/30 11:28:52;;;;;;;3.22;2.25;;;5.10;99.90;;;;;;5092133;28;20558;-57
2020/12/30 11:31:19;;;;;;;4.10;3.30;;;5.10;99.90;;;;;;5090513;28;20226;-58
2020/12/30 11:33:46;;;;;;;3.75;3.15;;;5.00;99.90;;;;;;5090378;28;20681;-60
2020/12/30 11:36:13;;;;;;;5.60;3.10;;;5.10;99.90;;;;;;5091688;28;20187;-58
2020/12/30 11:38:41;;;;;;;2.65;2.45;;;5.10;99.90;;;;;;5092411;28;20270;-58
2020/12/30 11:41:08;;;;;;;5.68;3.80;;;5.10;99.90;;;;;;5091718;28;20208;-58
2020/12/30 11:43:36;;;;;;;6.28;5.03;;;5.10;99.90;;;;;;5091090;28;20188;-59
2020/12/30 11:46:03;;;;;;;6.22;4.72;;;5.20;99.90;;;;;;5091581;28;20197;-57
2020/12/30 11:48:31;;;;;;;4.18;3.78;;;5.20;99.90;;;;;;5091237;28;20237;-58
2020/12/30 11:50:58;;;;;;;4.57;3.20;;;5.10;99.90;;;;;;5090894;28;20299;-58
2020/12/30 11:53:25;;;;;;;5.63;3.53;;;5.20;99.90;;;;;;5089923;28;20218;-62
2020/12/30 11:55:53;;;;;;;7.15;4.63;;;5.20;99.90;;;;;;5091360;28;20613;-58
2020/12/30 11:58:20;;;;;;;5.45;3.20;;;5.40;99.90;;;;;;5092020;28;20737;-57
2020/12/30 12:00:47;;;;;;;4.75;3.72;;;5.50;99.90;;;;;;5091326;28;20290;-57
2020/12/30 12:03:15;;;;;;;6.20;3.25;;;5.50;99.90;;;;;;5090302;28;20191;-60
2020/12/30 12:05:42;;;;;;;4.25;3.53;;;5.40;99.90;;;;;;5091501;28;20187;-59
2020/12/30 12:08:09;;;;;;;5.18;3.60;;;5.40;99.90;;;;;;5091164;28;20195;-54
2020/12/30 12:10:37;;;;;;;2.58;2.30;;;5.40;99.90;;;;;;5092062;28;20293;-57
2020/12/30 12:13:04;;;;;;;4.45;3.95;;;5.40;99.90;;;;;;5091083;28;20661;-56
2020/12/30 12:15:31;;;;;;;5.20;3.72;;;5.40;99.90;;;;;;5091189;28;20180;-59
2020/12/30 12:17:58;;;;;;;5.53;4.03;;;5.40;99.90;;;;;;5091510;28;20183;-60
2020/12/30 12:20:26;;;;;;;5.43;4.47;;;5.50;99.90;;;;;;5091238;28;20199;-54
2020/12/30 12:22:53;;;;;;;5.63;4.22;;;5.50;99.90;;;;;;5090814;28;20237;-55
2020/12/30 12:25:21;;;;;;;5.32;4.80;;;5.50;99.90;;;;;;5092067;28;20198;-58
2020/12/30 12:27:48;;;;;;;7.38;4.70;;;5.50;99.90;;;;;;5092087;28;20198;-54
2020/12/30 12:30:17;;;;;;;6.63;3.45;;;5.50;99.90;;;;;;5092551;28;20215;-58
2020/12/30 12:32:44;;;;;;;4.90;3.72;;;5.50;99.90;;;;;;5092604;28;20211;-58
2020/12/30 12:35:11;;;;;;;4.78;3.63;;;5.60;99.90;;;;;;5092607;28;20191;-58
2020/12/30 12:37:39;;;;;;;8.73;4.72;;;5.50;99.90;;;;;;5094184;28;20329;-54
2020/12/30 12:40:07;;;;;;;5.60;3.38;;;5.40;99.90;;;;;;5092951;28;20283;-60
2020/12/30 12:42:34;;;;;;;5.22;3.30;;;5.40;99.90;;;;;;5092802;28;20191;-56
2020/12/30 12:45:01;;;;;;;5.45;4.50;;;5.40;99.90;;;;;;5091847;28;20202;-59
2020/12/30 12:47:28;;;;;;;7.22;3.58;;;5.40;99.90;;;;;;5090808;28;20221;-56
2020/12/30 12:49:55;;;;;;;3.83;3.05;;;5.40;99.90;;;;;;5098755;28;20221;-60
2020/12/30 12:52:22;;;;;;;7.85;4.47;;;5.50;99.90;;;;;;5090267;28;20260;-56
2020/12/30 12:54:50;;;;;;;8.18;5.47;;;5.50;99.90;;;;;;5082566;28;20191;-58
2020/12/30 12:57:17;;;;;;;6.65;3.67;;;5.50;99.90;;;;;;5090817;28;20256;-56
2020/12/30 12:59:45;;;;;;;4.80;4.28;;;5.50;99.90;;;;;;5088954;28;20225;-54
2020/12/30 13:02:12;;;;;;;3.33;2.72;;;5.50;99.90;;;;;;5091222;28;20269;-55
2020/12/30 13:04:39;;;;;;;3.88;3.53;;;5.50;99.90;;;;;;5091606;28;20880;-56
2020/12/30 13:07:06;;;;;;;4.80;4.30;;;5.50;99.90;;;;;;5097926;28;20221;-61